Lycoming, NY

5:37 AM EST on December 28, 2014 (GMT -0500)
Lakeview Rd., Scriba | Change Station
CLOSE
Current Station
Personal Weather Station
Location: Oswego, NY
Elevation: 348 ft
Nearby Weather Stations

Elev 348 ft 43.49 °N, 76.41 °W | Updated 10 minutes ago

Rain
Rain
40.3 °F
Feels Like 35 °F
N
8.3
Wind Variable Wind from West

Today
High -- | Low -- °F
--% Chance of Precip.
Yesterday
High -- | Low -- °F
Precip. -- in
7:37 AM 4:36 PM
Waxing Crescent, 46% visible
Pressure 29.85 in
Visibility 8.0 miles
Clouds Overcast 900 ft
Windchill 35 °F
Dew Point 39 °F
Humidity 94%
Rainfall 0.15 in
Snow Depth Not available.
UV 0 out of 12
Pollen .10 out of 12
Air Quality Not available.
Flu Activity Not available.
SPECI KFZY 281032Z AUTO 27015KT 8SM -RA OVC009 05/03 A2985 RMK AO2 P0002 T00500028

More Conditions Fewer Conditions

Pressure 29.85 in
Visibility 8.0 miles
Clouds Overcast 900 ft
Windchill 35 °F
Dew Point 39 °F
Humidity 94%
Rainfall 0.15 in
Snow Depth Not available.
UV 0 out of 12
Pollen .10 out of 12
Air Quality Not available.
Flu Activity Not available.
SPECI KFZY 281032Z AUTO 27015KT 8SM -RA OVC009 05/03 A2985 RMK AO2 P0002 T00500028

More Conditions Fewer Conditions

10-Day Weather Forecast

Almanac

Astronomy

Dec. 28, 2014 Rise Set
Actual Time
Civil Twilight
Nautical Twilight
Astronomical Twilight
Moon
Length of Visible Light
Length of Day
Tomorrow will be .
, % of the Moon is Illuminated

Today's Extremes

State Highs State Lows

Community

WunderPhotos

Upload Photos

1,781,232 photos uploaded!

WunderBlogs® & News

Nearby

Air Quality

  Air Quality AQ Index Pollutant
Not available.

Snow Depth

Station Depth Elevation

Earthquake Activity

City Distance Mag. Time & Date
Minimum magnitude displayed is 2.5.

Coastal Water Temperatures

Place Temperature

Nearby Weather Stations